createdAt,value
2022-08-28T00:01:35.139Z,49.31
2022-08-28T00:06:39.995Z,49.51
2022-08-28T00:11:43.700Z,49.44
2022-08-28T00:16:47.827Z,50.62
2022-08-28T00:21:52.991Z,51.80
2022-08-28T00:27:13.726Z,49.48
2022-08-28T00:32:17.272Z,49.45
2022-08-28T00:37:24.669Z,48.64
2022-08-28T00:42:28.572Z,48.32
2022-08-28T00:47:32.006Z,49.06
2022-08-28T00:52:36.969Z,49.67
2022-08-28T00:57:43.490Z,49.89
2022-08-28T01:02:47.205Z,49.44
2022-08-28T01:07:53.452Z,48.69
2022-08-28T01:12:58.823Z,49.15
2022-08-28T01:18:08.227Z,48.63
2022-08-28T01:23:16.670Z,48.44
2022-08-28T01:28:21.610Z,48.58
2022-08-28T01:33:28.284Z,49.39
2022-08-28T01:38:31.843Z,50.28
2022-08-28T01:43:36.659Z,50.00
2022-08-28T01:48:43.190Z,50.02
2022-08-28T01:53:46.805Z,50.08
2022-08-28T01:58:52.394Z,49.61
2022-08-28T02:03:55.873Z,50.67
2022-08-28T02:09:00.391Z,52.57
2022-08-28T02:14:05.265Z,50.38
2022-08-28T02:19:08.702Z,50.10
2022-08-28T02:24:12.466Z,51.52
2022-08-28T02:29:18.570Z,49.40
2022-08-28T02:34:23.032Z,50.26
2022-08-28T02:39:26.533Z,50.42
2022-08-28T02:44:31.388Z,51.48
2022-08-28T02:49:36.294Z,51.29
2022-08-28T02:54:40.659Z,50.54
2022-08-28T02:59:45.513Z,50.80
2022-08-28T03:04:49.376Z,52.38
2022-08-28T03:09:54.776Z,50.55
2022-08-28T03:14:59.606Z,50.79
2022-08-28T03:20:03.367Z,50.21
2022-08-28T03:25:07.377Z,49.91
2022-08-28T03:30:12.985Z,51.60
2022-08-28T03:35:16.506Z,51.14
2022-08-28T03:40:21.552Z,50.82
2022-08-28T03:45:26.606Z,50.33
2022-08-28T03:50:30.213Z,50.76
2022-08-28T03:55:34.068Z,52.91
2022-08-28T04:00:41.801Z,51.64
2022-08-28T04:05:48.467Z,51.80
2022-08-28T04:10:52.184Z,51.54
2022-08-28T04:16:02.490Z,51.08
2022-08-28T04:21:12.142Z,50.79
2022-08-28T04:26:17.694Z,51.01
2022-08-28T04:31:32.077Z,51.66
2022-08-28T04:36:37.018Z,52.76
2022-08-28T04:41:40.460Z,52.17
2022-08-28T04:46:45.306Z,54.88
2022-08-28T04:51:52.068Z,52.76
2022-08-28T04:56:55.691Z,52.45
2022-08-28T05:02:00.535Z,51.62
2022-08-28T05:07:04.155Z,53.25
2022-08-28T05:12:07.837Z,51.58
2022-08-28T05:17:13.798Z,52.70
2022-08-28T05:22:17.232Z,52.41
2022-08-28T05:27:20.743Z,53.58
2022-08-28T05:32:25.569Z,55.48
2022-08-28T05:37:29.126Z,53.61
2022-08-28T05:42:37.089Z,54.33
2022-08-28T05:47:43.894Z,56.13
2022-08-28T05:52:47.414Z,53.01
2022-08-28T05:57:50.879Z,51.82
2022-08-28T06:02:55.757Z,50.84
2022-08-28T06:07:59.343Z,49.86
2022-08-28T06:13:02.745Z,53.43
2022-08-28T06:18:07.819Z,50.45
2022-08-28T06:23:12.033Z,49.64
2022-08-28T06:28:24.835Z,49.89
2022-08-28T06:33:29.870Z,50.95
2022-08-28T06:38:33.323Z,51.11
2022-08-28T06:43:37.295Z,50.78
2022-08-28T06:48:42.162Z,50.09
2022-08-28T06:53:46.770Z,48.26
2022-08-28T06:58:51.732Z,48.38
2022-08-28T07:03:59.326Z,52.67
2022-08-28T07:09:02.999Z,48.91
2022-08-28T07:14:07.186Z,48.74
2022-08-28T07:19:12.932Z,47.89
2022-08-28T07:24:17.376Z,48.58
2022-08-28T07:29:21.738Z,46.33
2022-08-28T07:34:27.124Z,46.63
2022-08-28T07:39:31.087Z,46.73
2022-08-28T07:44:54.795Z,47.54
2022-08-28T07:50:01.532Z,45.98
2022-08-28T07:55:08.681Z,48.84
2022-08-28T08:00:17.058Z,46.38
2022-08-28T08:05:21.917Z,43.52
2022-08-28T08:10:25.417Z,42.95
2022-08-28T08:15:35.621Z,43.83
2022-08-28T08:20:40.811Z,42.43
2022-08-28T08:26:33.656Z,42.72
2022-08-28T08:31:37.246Z,42.01
2022-08-28T08:36:45.796Z,41.14
2022-08-28T08:41:51.762Z,42.45
2022-08-28T08:47:01.543Z,41.85
2022-08-28T08:52:22.095Z,39.41
2022-08-28T08:57:25.690Z,40.29
2022-08-28T09:02:33.424Z,39.15
2022-08-28T09:07:41.121Z,41.36
2022-08-28T09:12:51.194Z,38.41
2022-08-28T09:17:56.490Z,38.22
2022-08-28T09:23:01.977Z,38.00
2022-08-28T09:28:08.114Z,35.63
2022-08-28T09:33:11.810Z,37.32
2022-08-28T09:38:21.134Z,35.83
2022-08-28T09:43:28.223Z,37.56
2022-08-28T09:48:34.610Z,36.62
2022-08-28T09:53:55.527Z,35.78
2022-08-28T09:59:01.842Z,38.57
2022-08-28T10:04:18.063Z,37.20
2022-08-28T10:09:29.299Z,35.87
2022-08-28T10:14:44.341Z,34.00
2022-08-28T10:19:55.205Z,35.70
2022-08-28T10:25:15.779Z,37.19
2022-08-28T10:30:22.970Z,34.88
2022-08-28T10:35:36.895Z,33.18
2022-08-28T10:40:51.912Z,33.35
2022-08-28T10:45:55.910Z,32.95
2022-08-28T10:51:01.971Z,35.73
2022-08-28T10:56:10.196Z,31.95
2022-08-28T11:01:16.072Z,34.63
2022-08-28T11:06:26.155Z,34.34
2022-08-28T11:11:44.745Z,31.60
2022-08-28T11:16:50.106Z,29.28
2022-08-28T11:21:56.411Z,30.09
2022-08-28T11:27:13.529Z,30.93
2022-08-28T11:32:29.833Z,28.93
2022-08-28T11:37:43.875Z,28.62
2022-08-28T11:42:50.076Z,29.56
2022-08-28T11:47:57.702Z,31.19
2022-08-28T11:53:28.166Z,30.52
2022-08-28T11:58:39.354Z,31.34
2022-08-28T12:03:45.895Z,29.79
2022-08-28T12:09:11.215Z,27.74
2022-08-28T12:15:07.770Z,27.32
2022-08-28T12:20:21.244Z,28.06
2022-08-28T12:25:30.854Z,27.74
2022-08-28T12:30:41.046Z,27.58
2022-08-28T12:35:50.391Z,28.82
2022-08-28T12:40:55.963Z,28.05
2022-08-28T12:46:02.063Z,27.23
2022-08-28T12:51:09.158Z,27.79
2022-08-28T12:56:14.392Z,27.90
2022-08-28T13:01:25.984Z,25.91
2022-08-28T13:06:33.989Z,26.59
2022-08-28T13:11:39.511Z,28.86
2022-08-28T13:16:46.579Z,28.53
2022-08-28T13:21:58.536Z,27.52
2022-08-28T13:27:07.291Z,27.19
2022-08-28T13:32:17.391Z,26.80
2022-08-28T13:37:42.948Z,24.89
2022-08-28T13:42:56.262Z,26.22
2022-08-28T13:47:59.811Z,25.62
2022-08-28T13:53:05.943Z,25.24
2022-08-28T13:58:09.512Z,26.33
2022-08-28T14:03:30.418Z,24.65
2022-08-28T14:09:01.911Z,26.53
2022-08-28T14:14:05.556Z,28.44
2022-08-28T14:19:09.551Z,28.88
2022-08-28T14:24:14.689Z,28.42
2022-08-28T14:29:19.662Z,27.27
2022-08-28T14:34:24.363Z,28.19
2022-08-28T14:39:32.226Z,27.17
2022-08-28T14:44:40.964Z,27.60
2022-08-28T14:49:44.514Z,27.18
2022-08-28T14:54:49.340Z,27.95
2022-08-28T14:59:53.044Z,29.36
2022-08-28T15:04:56.627Z,27.88
2022-08-28T15:10:03.683Z,29.39
2022-08-28T15:15:07.869Z,27.20
2022-08-28T15:20:12.734Z,27.31
2022-08-28T15:25:19.100Z,26.61
2022-08-28T15:30:24.574Z,26.22
2022-08-28T15:35:28.216Z,27.16
2022-08-28T15:40:50.860Z,27.05
2022-08-28T15:45:54.348Z,24.81
2022-08-28T15:50:58.061Z,25.81
2022-08-28T15:56:05.283Z,24.04
2022-08-28T16:01:09.330Z,25.06
2022-08-28T16:06:14.379Z,24.86
2022-08-28T16:11:20.599Z,26.99
2022-08-28T16:16:24.442Z,26.99
2022-08-28T16:21:31.685Z,27.92
2022-08-28T16:26:36.776Z,28.22
2022-08-28T16:31:40.371Z,29.14
2022-08-28T16:36:43.910Z,29.02
2022-08-28T16:41:50.215Z,29.66
2022-08-28T16:46:54.461Z,30.19
2022-08-28T16:51:57.926Z,30.43
2022-08-28T16:57:02.782Z,30.40
2022-08-28T17:02:06.379Z,29.28
2022-08-28T17:07:10.153Z,29.31
2022-08-28T17:12:15.326Z,29.29
2022-08-28T17:17:19.275Z,30.77
2022-08-28T17:22:34.558Z,30.48
2022-08-28T17:27:40.795Z,31.05
2022-08-28T17:32:44.874Z,31.64
2022-08-28T17:37:50.614Z,31.07
2022-08-28T17:42:56.750Z,33.49
2022-08-28T17:48:00.394Z,33.71
2022-08-28T17:53:03.935Z,33.15
2022-08-28T17:58:08.758Z,32.25
2022-08-28T18:03:12.226Z,34.11
2022-08-28T18:08:15.745Z,34.88
2022-08-28T18:13:20.582Z,35.02
2022-08-28T18:18:26.944Z,34.89
2022-08-28T18:23:40.531Z,35.96
2022-08-28T18:28:45.335Z,35.47
2022-08-28T18:33:48.937Z,37.13
2022-08-28T18:38:52.875Z,35.87
2022-08-28T18:43:57.754Z,37.47
2022-08-28T18:49:06.944Z,36.17
2022-08-28T18:54:10.722Z,35.17
2022-08-28T18:59:17.212Z,35.98
2022-08-28T19:04:20.995Z,37.08
2022-08-28T19:09:29.035Z,37.17
2022-08-28T19:14:37.822Z,36.39
2022-08-28T19:19:41.335Z,37.36
2022-08-28T19:24:45.168Z,38.08
2022-08-28T19:29:50.322Z,38.94
2022-08-28T19:34:53.836Z,38.73
2022-08-28T19:39:57.921Z,40.15
2022-08-28T19:45:03.016Z,40.60
2022-08-28T19:50:09.303Z,39.81
2022-08-28T19:55:18.174Z,42.86
2022-08-28T20:00:25.529Z,41.73
2022-08-28T20:05:29.074Z,40.40
2022-08-28T20:10:33.431Z,40.99
2022-08-28T20:15:38.683Z,41.05
2022-08-28T20:20:44.753Z,41.63
2022-08-28T20:25:48.457Z,41.61
2022-08-28T20:30:53.399Z,40.31
2022-08-28T20:36:01.443Z,40.33
2022-08-28T20:41:06.654Z,42.43
2022-08-28T20:46:12.342Z,40.94
2022-08-28T20:51:15.785Z,42.37
2022-08-28T20:56:19.314Z,41.31
2022-08-28T21:01:24.345Z,41.14
2022-08-28T21:06:27.847Z,40.03
2022-08-28T21:11:31.350Z,40.47
2022-08-28T21:16:36.675Z,41.58
2022-08-28T21:21:40.410Z,40.44
2022-08-28T21:26:45.302Z,40.54
2022-08-28T21:31:53.234Z,40.53
2022-08-28T21:36:57.911Z,40.24
2022-08-28T21:42:01.990Z,40.75
2022-08-28T21:47:07.075Z,40.21
2022-08-28T21:52:10.724Z,41.21
2022-08-28T21:57:14.348Z,41.53
2022-08-28T22:02:19.303Z,41.67
2022-08-28T22:07:22.863Z,41.57
2022-08-28T22:12:26.335Z,42.44
2022-08-28T22:17:31.352Z,42.42
2022-08-28T22:22:52.350Z,43.13
2022-08-28T22:27:56.371Z,43.99
2022-08-28T22:33:01.385Z,44.96
2022-08-28T22:38:04.912Z,44.66
2022-08-28T22:43:08.420Z,44.84
2022-08-28T22:48:14.403Z,44.58
2022-08-28T22:53:19.097Z,45.22
2022-08-28T22:58:22.546Z,45.75
2022-08-28T23:03:27.564Z,47.63
2022-08-28T23:08:34.012Z,45.55
2022-08-28T23:13:37.977Z,45.66
2022-08-28T23:19:06.710Z,46.03
2022-08-28T23:24:06.587Z,46.63
2022-08-28T23:29:10.195Z,45.24
2022-08-28T23:34:15.027Z,46.16
2022-08-28T23:39:19.461Z,46.53
2022-08-28T23:44:24.917Z,46.85
2022-08-28T23:49:31.236Z,47.48
2022-08-28T23:54:35.497Z,48.10
2022-08-28T23:59:38.994Z,46.25
